EINN - Shannon Airport
Distance from station: E 5mi, 14km
Updated: 07/22/2018 1:00pm
Mostly Cloudy
Mostly Cloudy
 Wind from W
Wind: W 10 mph , 17 km/h
Temperature: 68°F , 20°C
Dew Point: 61°F , 16°C
Humidity: 78%
Barometer: 30 inHg , 1016 hPa
Clouds: Mostly Cloudy
Visibility: 6 miles , 10 km
Cloud details: Few Clouds 1200 ft
Mostly Cloudy 6000 ft
2018/07/22 20:00 EINN 222000Z 28009KT 9999 FEW012 BKN060 20/16 Q1016 NOSIG